createdAt,value
2022-09-04T00:02:22.765Z,99444.00
2022-09-04T00:05:02.794Z,99444.60
2022-09-04T00:08:04.966Z,99447.80
2022-09-04T00:11:01.946Z,99451.40
2022-09-04T00:13:37.896Z,99451.40
2022-09-04T00:16:22.333Z,99452.60
2022-09-04T00:19:20.761Z,99451.40
2022-09-04T00:22:00.578Z,99456.00
2022-09-04T00:24:50.359Z,99452.80
2022-09-04T00:27:27.836Z,99458.60
2022-09-04T00:30:30.163Z,99463.80
2022-09-04T00:33:31.072Z,99466.40
2022-09-04T00:36:04.058Z,99467.40
2022-09-04T00:38:58.512Z,99470.40
2022-09-04T00:41:55.027Z,99466.20
2022-09-04T00:44:58.842Z,99467.60
2022-09-04T00:48:14.702Z,99466.60
2022-09-04T00:51:11.545Z,99468.60
2022-09-04T00:54:24.889Z,99469.20
2022-09-04T00:57:13.774Z,99473.60
2022-09-04T01:00:17.604Z,99471.20
2022-09-04T01:03:17.890Z,99468.80
2022-09-04T01:06:10.513Z,99468.60
2022-09-04T01:09:22.019Z,99472.00
2022-09-04T01:12:23.637Z,99466.60
2022-09-04T01:15:24.617Z,99464.20
2022-09-04T01:18:41.605Z,99460.80
2022-09-04T01:21:30.770Z,99464.60
2022-09-04T01:24:20.081Z,99464.00
2022-09-04T01:27:32.853Z,99468.80
2022-09-04T01:30:16.426Z,99466.60
2022-09-04T01:32:59.927Z,99467.60
2022-09-04T01:35:44.448Z,99468.80
2022-09-04T01:38:51.065Z,99469.00
2022-09-04T01:41:43.164Z,99469.60
2022-09-04T01:44:12.901Z,99470.20
2022-09-04T01:46:44.028Z,99471.40
2022-09-04T01:49:45.386Z,99469.00
2022-09-04T01:52:38.658Z,99471.60
2022-09-04T01:55:36.925Z,99477.00
2022-09-04T01:58:18.855Z,99473.80
2022-09-04T02:01:13.335Z,99473.60
2022-09-04T02:04:20.289Z,99467.60
2022-09-04T02:06:59.426Z,99468.00
2022-09-04T02:10:00.738Z,99469.80
2022-09-04T02:12:42.546Z,99469.80
2022-09-04T02:15:37.596Z,99470.00
2022-09-04T02:18:17.429Z,99472.00
2022-09-04T02:21:07.706Z,99472.00
2022-09-04T02:24:25.442Z,99474.40
2022-09-04T02:27:16.954Z,99473.00
2022-09-04T02:30:10.185Z,99473.20
2022-09-04T02:33:13.208Z,99471.60
2022-09-04T02:35:52.906Z,99478.40
2022-09-04T02:38:51.177Z,99477.40
2022-09-04T02:41:29.309Z,99478.20
2022-09-04T02:44:35.093Z,99472.40
2022-09-04T02:47:20.347Z,99468.80
2022-09-04T02:50:11.417Z,99470.60
2022-09-04T02:52:59.687Z,99471.60
2022-09-04T02:56:09.905Z,99478.00
2022-09-04T02:59:17.266Z,99484.80
2022-09-04T03:01:59.359Z,99488.40
2022-09-04T03:05:19.438Z,99482.40
2022-09-04T03:08:10.774Z,99490.40
2022-09-04T03:11:00.917Z,99492.80
2022-09-04T03:13:42.688Z,99487.40
2022-09-04T03:16:32.403Z,99488.20
2022-09-04T03:19:22.576Z,99487.40
2022-09-04T03:22:21.976Z,99490.20
2022-09-04T03:25:33.552Z,99493.00
2022-09-04T03:28:01.691Z,99491.20
2022-09-04T03:30:34.860Z,99491.60
2022-09-04T03:33:34.653Z,99491.00
2022-09-04T03:36:18.297Z,99491.60
2022-09-04T03:39:16.716Z,99492.40
2022-09-04T03:42:07.676Z,99493.20
2022-09-04T03:45:14.924Z,99498.20
2022-09-04T03:47:51.112Z,99498.40
2022-09-04T03:51:08.492Z,99501.40
2022-09-04T03:53:46.131Z,99508.00
2022-09-04T03:56:53.426Z,99506.40
2022-09-04T03:59:54.935Z,99510.20
2022-09-04T04:02:46.777Z,99510.00
2022-09-04T04:05:58.670Z,99513.20
2022-09-04T04:08:36.972Z,99516.60
2022-09-04T04:11:43.225Z,99518.20
2022-09-04T04:14:38.895Z,99519.60
2022-09-04T04:17:31.488Z,99516.60
2022-09-04T04:20:26.284Z,99519.60
2022-09-04T04:23:23.973Z,99517.20
2022-09-04T04:26:05.756Z,99519.80
2022-09-04T04:29:01.982Z,99516.80
2022-09-04T04:32:10.361Z,99517.20
2022-09-04T04:35:03.363Z,99516.20
2022-09-04T04:37:51.854Z,99516.20
2022-09-04T04:40:34.835Z,99521.80
2022-09-04T04:43:20.210Z,99520.80
2022-09-04T04:46:22.961Z,99525.20
2022-09-04T04:49:30.329Z,99532.20
2022-09-04T04:52:42.305Z,99525.40
2022-09-04T04:55:50.300Z,99527.60
2022-09-04T04:58:42.370Z,99531.80
2022-09-04T05:01:33.065Z,99531.80
2022-09-04T05:04:23.684Z,99540.20
2022-09-04T05:07:20.993Z,99543.00
2022-09-04T05:10:11.340Z,99552.60
2022-09-04T05:13:14.592Z,99552.60
2022-09-04T05:16:08.523Z,99549.40
2022-09-04T05:19:01.580Z,99547.80
2022-09-04T05:21:49.168Z,99548.00
2022-09-04T05:25:10.410Z,99541.80
2022-09-04T05:28:03.586Z,99538.60
2022-09-04T05:30:54.506Z,99546.80
2022-09-04T05:33:39.783Z,99546.40
2022-09-04T05:36:26.139Z,99541.40
2022-09-04T05:39:13.502Z,99547.20
2022-09-04T05:42:06.332Z,99555.80
2022-09-04T05:44:58.800Z,99558.40
2022-09-04T05:48:34.047Z,99564.20
2022-09-04T05:51:50.714Z,99562.40
2022-09-04T05:54:49.777Z,99557.80
2022-09-04T05:57:36.326Z,99560.60
2022-09-04T06:00:09.912Z,99569.60
2022-09-04T06:03:13.566Z,99577.20
2022-09-04T06:05:48.872Z,99575.60
2022-09-04T06:08:53.404Z,99581.00
2022-09-04T06:11:36.839Z,99580.40
2022-09-04T06:14:56.991Z,99578.00
2022-09-04T06:17:55.629Z,99584.40
2022-09-04T06:20:42.583Z,99582.20
2022-09-04T06:23:36.761Z,99585.20
2022-09-04T06:26:32.670Z,99587.00
2022-09-04T06:29:33.461Z,99589.20
2022-09-04T06:32:30.732Z,99586.20
2022-09-04T06:35:47.059Z,99591.80
2022-09-04T06:38:31.766Z,99593.00
2022-09-04T06:41:22.787Z,99591.20
2022-09-04T06:44:16.753Z,99591.20
2022-09-04T06:47:33.431Z,99596.20
2022-09-04T06:50:24.610Z,99591.60
2022-09-04T06:53:36.275Z,99582.60
2022-09-04T06:56:27.084Z,99585.40
2022-09-04T06:59:23.807Z,99588.40
2022-09-04T07:02:30.033Z,99587.60
2022-09-04T07:05:31.626Z,99591.80
2022-09-04T07:08:19.264Z,99594.20
2022-09-04T07:10:57.944Z,99591.60
2022-09-04T07:14:20.132Z,99596.00
2022-09-04T07:17:26.864Z,99597.20
2022-09-04T07:20:24.336Z,99599.80
2022-09-04T07:23:04.381Z,99601.60
2022-09-04T07:25:54.430Z,99603.80
2022-09-04T07:28:58.413Z,99608.20
2022-09-04T07:31:40.045Z,99609.60
2022-09-04T07:34:21.727Z,99620.40
2022-09-04T07:37:31.864Z,99618.40
2022-09-04T07:40:21.932Z,99621.40
2022-09-04T07:43:08.277Z,99623.40
2022-09-04T07:45:47.542Z,99629.80
2022-09-04T07:48:32.386Z,99627.80
2022-09-04T07:51:10.694Z,99620.80
2022-09-04T07:54:13.474Z,99621.60
2022-09-04T07:57:36.037Z,99626.80
2022-09-04T08:00:10.245Z,99632.40
2022-09-04T08:03:11.928Z,99630.20
2022-09-04T08:05:52.084Z,99639.60
2022-09-04T08:09:04.253Z,99639.40
2022-09-04T08:11:58.263Z,99633.40
2022-09-04T08:14:46.114Z,99636.60
2022-09-04T08:17:57.805Z,99637.60
2022-09-04T08:20:54.996Z,99639.80
2022-09-04T08:23:30.206Z,99641.20
2022-09-04T08:26:28.682Z,99642.80
2022-09-04T08:29:57.513Z,99639.80
2022-09-04T08:32:54.688Z,99643.00
2022-09-04T08:35:40.176Z,99650.20
2022-09-04T08:38:21.525Z,99649.00
2022-09-04T08:41:16.821Z,99652.40
2022-09-04T08:44:44.782Z,99650.20
2022-09-04T08:47:53.558Z,99656.20
2022-09-04T08:51:02.444Z,99654.00
2022-09-04T08:54:42.440Z,99652.20
2022-09-04T08:58:15.900Z,99652.80
2022-09-04T09:01:41.311Z,99649.80
2022-09-04T09:04:55.211Z,99648.20
2022-09-04T09:07:49.687Z,99647.40
2022-09-04T09:10:56.661Z,99641.00
2022-09-04T09:13:57.657Z,99645.00
2022-09-04T09:16:43.991Z,99644.60
2022-09-04T09:19:14.824Z,99646.20
2022-09-04T09:22:09.438Z,99646.20
2022-09-04T09:24:51.711Z,99652.80
2022-09-04T09:27:58.871Z,99654.00
2022-09-04T09:30:27.737Z,99660.80
2022-09-04T09:33:56.597Z,99660.80
2022-09-04T09:37:02.625Z,99660.60
2022-09-04T09:39:56.745Z,99657.20
2022-09-04T09:43:27.113Z,99655.40
2022-09-04T09:47:13.937Z,99652.20
2022-09-04T09:50:17.905Z,99653.00
2022-09-04T09:53:21.912Z,99652.20
2022-09-04T09:56:42.712Z,99653.20
2022-09-04T10:00:07.092Z,99649.60
2022-09-04T10:03:29.777Z,99658.20
2022-09-04T10:06:32.060Z,99660.80
2022-09-04T10:09:29.484Z,99661.60
2022-09-04T10:12:29.400Z,99660.00
2022-09-04T10:15:39.295Z,99657.20
2022-09-04T10:18:56.548Z,99661.80
2022-09-04T10:22:10.019Z,99650.80
2022-09-04T10:25:13.968Z,99646.20
2022-09-04T10:28:11.472Z,99650.60
2022-09-04T10:31:55.501Z,99660.60
2022-09-04T10:35:03.299Z,99658.80
2022-09-04T10:38:13.649Z,99665.80
2022-09-04T10:41:15.650Z,99666.40
2022-09-04T10:43:55.190Z,99662.00
2022-09-04T10:47:07.973Z,99662.00
2022-09-04T10:50:07.412Z,99655.60
2022-09-04T10:53:22.697Z,99657.20
2022-09-04T10:56:29.981Z,99660.00
2022-09-04T10:59:13.110Z,99663.40
2022-09-04T11:02:33.849Z,99659.80
2022-09-04T11:05:27.720Z,99658.80
2022-09-04T11:08:00.795Z,99667.40
2022-09-04T11:10:51.732Z,99664.20
2022-09-04T11:13:58.707Z,99659.40
2022-09-04T11:16:40.376Z,99656.40
2022-09-04T11:19:55.065Z,99662.40
2022-09-04T11:22:34.878Z,99655.80
2022-09-04T11:25:44.417Z,99657.60
2022-09-04T11:28:40.433Z,99652.80
2022-09-04T11:31:51.144Z,99641.00
2022-09-04T11:34:58.017Z,99647.40
2022-09-04T11:38:11.208Z,99645.00
2022-09-04T11:40:56.160Z,99650.40
2022-09-04T11:44:08.428Z,99655.20
2022-09-04T11:47:32.082Z,99654.80
2022-09-04T11:50:25.643Z,99658.60
2022-09-04T11:53:19.540Z,99661.20
2022-09-04T11:56:16.330Z,99656.20
2022-09-04T11:59:00.178Z,99655.40
2022-09-04T12:01:57.521Z,99652.00
2022-09-04T12:04:42.647Z,99648.00
2022-09-04T12:07:26.362Z,99645.80
2022-09-04T12:10:33.064Z,99642.40
2022-09-04T12:13:40.159Z,99643.80
2022-09-04T12:16:15.715Z,99649.60
2022-09-04T12:19:08.526Z,99646.60
2022-09-04T12:22:01.435Z,99641.00
2022-09-04T12:25:08.764Z,99640.40
2022-09-04T12:28:06.304Z,99642.00
2022-09-04T12:30:58.503Z,99646.20
2022-09-04T12:33:53.796Z,99644.00
2022-09-04T12:37:11.402Z,99636.40
2022-09-04T12:40:29.761Z,99639.00
2022-09-04T12:43:09.205Z,99638.00
2022-09-04T12:45:53.354Z,99638.60
2022-09-04T12:49:01.001Z,99637.80
2022-09-04T12:51:49.398Z,99639.20
2022-09-04T12:54:43.880Z,99634.00
2022-09-04T12:58:06.504Z,99628.80
2022-09-04T13:00:49.611Z,99630.00
2022-09-04T13:03:38.250Z,99628.20
2022-09-04T13:06:35.058Z,99633.80
2022-09-04T13:09:42.855Z,99630.40
2022-09-04T13:12:55.162Z,99635.80
2022-09-04T13:15:40.735Z,99645.80
2022-09-04T13:18:36.492Z,99648.40
2022-09-04T13:21:44.092Z,99650.20
2022-09-04T13:24:44.539Z,99656.00
2022-09-04T13:27:47.216Z,99649.40
2022-09-04T13:30:25.463Z,99647.60
2022-09-04T13:33:12.806Z,99649.00
2022-09-04T13:35:53.149Z,99651.40
2022-09-04T13:38:50.537Z,99646.60
2022-09-04T13:41:59.680Z,99649.00
2022-09-04T13:45:05.811Z,99653.40
2022-09-04T13:47:57.108Z,99649.00
2022-09-04T13:50:55.841Z,99652.40
2022-09-04T13:53:51.304Z,99652.00
2022-09-04T13:56:28.447Z,99650.20
2022-09-04T13:59:08.581Z,99649.80
2022-09-04T14:01:47.965Z,99654.40
2022-09-04T14:04:27.554Z,99660.80
2022-09-04T14:07:25.820Z,99662.00
2022-09-04T14:09:58.041Z,99657.00
2022-09-04T14:13:02.817Z,99651.40
2022-09-04T14:16:04.032Z,99651.80
2022-09-04T14:18:34.462Z,99654.20
2022-09-04T14:21:11.518Z,99653.00
2022-09-04T14:24:19.035Z,99655.00
2022-09-04T14:27:11.416Z,99653.60
2022-09-04T14:30:08.045Z,99648.20
2022-09-04T14:33:07.242Z,99647.80
2022-09-04T14:36:02.172Z,99641.00
2022-09-04T14:39:18.798Z,99648.40
2022-09-04T14:42:02.448Z,99650.40
2022-09-04T14:44:56.966Z,99654.40
2022-09-04T14:47:55.368Z,99660.40
2022-09-04T14:50:34.159Z,99665.00
2022-09-04T14:53:06.075Z,99671.00
2022-09-04T14:56:01.807Z,99669.00
2022-09-04T14:58:38.329Z,99670.60
2022-09-04T15:01:11.630Z,99668.60
2022-09-04T15:04:06.481Z,99667.80
2022-09-04T15:07:07.909Z,99671.80
2022-09-04T15:09:41.041Z,99673.20
2022-09-04T15:12:32.449Z,99681.20
2022-09-04T15:15:20.430Z,99678.00
2022-09-04T15:18:04.898Z,99679.00
2022-09-04T15:20:39.920Z,99684.40
2022-09-04T15:23:24.404Z,99683.80
2022-09-04T15:26:05.827Z,99682.60
2022-09-04T15:28:45.252Z,99680.00
2022-09-04T15:31:32.452Z,99680.20
2022-09-04T15:34:04.774Z,99676.20
2022-09-04T15:36:32.672Z,99680.00
2022-09-04T15:39:09.184Z,99680.40
2022-09-04T15:41:50.125Z,99677.00
2022-09-04T15:44:34.133Z,99679.20
2022-09-04T15:47:44.165Z,99679.40
2022-09-04T15:50:27.209Z,99685.60
2022-09-04T15:53:33.741Z,99683.80
2022-09-04T15:56:17.517Z,99680.00
2022-09-04T15:59:01.690Z,99675.80
2022-09-04T16:01:40.098Z,99679.20
2022-09-04T16:04:23.307Z,99681.20
2022-09-04T16:07:34.132Z,99681.20
2022-09-04T16:10:13.557Z,99680.40
2022-09-04T16:12:59.665Z,99683.80
2022-09-04T16:15:37.759Z,99686.80
2022-09-04T16:18:22.451Z,99687.60
2022-09-04T16:20:58.032Z,99684.60
2022-09-04T16:23:38.530Z,99688.60
2022-09-04T16:26:15.349Z,99688.80
2022-09-04T16:28:52.691Z,99700.00
2022-09-04T16:31:32.194Z,99704.80
2022-09-04T16:34:11.285Z,99704.00
2022-09-04T16:36:45.837Z,99705.00
2022-09-04T16:39:26.178Z,99703.40
2022-09-04T16:42:10.350Z,99709.00
2022-09-04T16:44:44.554Z,99710.00
2022-09-04T16:47:23.568Z,99711.20
2022-09-04T16:50:25.236Z,99716.20
2022-09-04T16:53:14.199Z,99715.80
2022-09-04T16:56:07.357Z,99715.60
2022-09-04T16:58:54.744Z,99721.00
2022-09-04T17:01:38.649Z,99716.20
2022-09-04T17:04:39.235Z,99725.80
2022-09-04T17:07:33.235Z,99730.20
2022-09-04T17:10:13.949Z,99729.40
2022-09-04T17:12:40.430Z,99739.40
2022-09-04T17:15:21.769Z,99737.60
2022-09-04T17:17:51.100Z,99745.80
2022-09-04T17:20:45.368Z,99743.80
2022-09-04T17:29:02.552Z,99745.80
2022-09-04T17:29:12.647Z,99748.00
2022-09-04T17:29:38.259Z,99744.80
2022-09-04T17:34:57.276Z,99745.60
2022-09-04T17:40:41.100Z,99751.40
2022-09-04T17:40:50.298Z,99752.40
2022-09-04T17:42:09.522Z,99756.80
2022-09-04T17:44:56.689Z,99761.60
2022-09-04T17:47:42.895Z,99763.60
2022-09-04T17:50:19.140Z,99769.80
2022-09-04T17:53:03.641Z,99771.80
2022-09-04T17:55:39.125Z,99772.60
2022-09-04T17:58:40.137Z,99775.60
2022-09-04T18:01:22.156Z,99781.60
2022-09-04T18:04:21.906Z,99779.40
2022-09-04T18:07:33.659Z,99785.80
2022-09-04T18:10:24.792Z,99787.80
2022-09-04T18:13:38.099Z,99783.00
2022-09-04T18:16:40.635Z,99794.60
2022-09-04T18:19:43.995Z,99793.80
2022-09-04T18:22:50.562Z,99800.60
2022-09-04T18:25:41.530Z,99804.00
2022-09-04T18:28:38.631Z,99808.80
2022-09-04T18:37:08.387Z,99818.80
2022-09-04T18:37:19.546Z,99821.60
2022-09-04T18:37:44.980Z,99828.00
2022-09-04T18:43:26.331Z,99829.60
2022-09-04T18:50:40.370Z,99827.00
2022-09-04T18:50:40.575Z,99829.60
2022-09-04T18:50:44.269Z,99830.00
2022-09-04T18:52:21.473Z,99828.80
2022-09-04T18:54:57.184Z,99833.80
2022-09-04T18:57:48.125Z,99835.40
2022-09-04T19:00:39.841Z,99830.00
2022-09-04T19:03:37.088Z,99830.40
2022-09-04T19:06:18.209Z,99831.60
2022-09-04T19:08:51.951Z,99831.40
2022-09-04T19:11:48.637Z,99838.20
2022-09-04T19:14:25.709Z,99833.60
2022-09-04T19:17:04.277Z,99837.40
2022-09-04T19:19:47.472Z,99840.40
2022-09-04T19:22:45.449Z,99845.40
2022-09-04T19:25:25.536Z,99849.40
2022-09-04T19:28:02.652Z,99854.60
2022-09-04T19:30:45.922Z,99859.20
2022-09-04T19:33:32.153Z,99859.20
2022-09-04T19:36:11.033Z,99863.40
2022-09-04T19:45:09.801Z,99863.40
2022-09-04T19:46:07.116Z,99863.60
2022-09-04T19:46:18.138Z,99864.00
2022-09-04T19:47:37.318Z,99868.20
2022-09-04T19:53:19.706Z,99867.40
2022-09-04T19:53:37.545Z,99867.60
2022-09-04T19:56:26.159Z,99866.60
2022-09-04T19:59:04.897Z,99876.60
2022-09-04T20:01:46.481Z,99882.80
2022-09-04T20:04:37.264Z,99882.40
2022-09-04T20:07:29.149Z,99880.40
2022-09-04T20:10:03.585Z,99883.60
2022-09-04T20:12:41.341Z,99881.40
2022-09-04T20:15:12.984Z,99889.00
2022-09-04T20:17:45.274Z,99884.40
2022-09-04T20:20:23.363Z,99879.80
2022-09-04T20:23:34.199Z,99886.00
2022-09-04T20:26:05.662Z,99885.00
2022-09-04T20:29:07.104Z,99889.80
2022-09-04T20:32:27.211Z,99890.40
2022-09-04T20:35:14.038Z,99892.80
2022-09-04T20:37:53.829Z,99890.80
2022-09-04T20:40:43.905Z,99890.60
2022-09-04T20:43:20.246Z,99896.20
2022-09-04T20:50:51.940Z,99891.40
2022-09-04T20:52:52.981Z,99898.80
2022-09-04T20:52:56.685Z,99900.60
2022-09-04T20:55:14.897Z,99900.60
2022-09-04T21:03:07.646Z,99903.40
2022-09-04T21:03:20.597Z,99904.40
2022-09-04T21:04:26.767Z,99908.40
2022-09-04T21:07:26.951Z,99913.00
2022-09-04T21:10:13.318Z,99918.20
2022-09-04T21:12:52.613Z,99918.40
2022-09-04T21:15:47.162Z,99919.80
2022-09-04T21:18:39.298Z,99920.20
2022-09-04T21:21:34.634Z,99922.20
2022-09-04T21:24:15.772Z,99923.60
2022-09-04T21:27:13.270Z,99922.00
2022-09-04T21:30:00.093Z,99927.60
2022-09-04T21:32:43.754Z,99933.00
2022-09-04T21:36:26.569Z,99931.20
2022-09-04T21:39:21.616Z,99934.60
2022-09-04T21:42:16.733Z,99935.60
2022-09-04T21:45:20.799Z,99937.00
2022-09-04T21:48:25.857Z,99936.40
2022-09-04T21:51:31.837Z,99938.20
2022-09-04T21:57:41.413Z,99937.60
2022-09-04T22:02:36.516Z,99938.00
2022-09-04T22:02:43.615Z,99937.80
2022-09-04T22:05:25.884Z,99942.60
2022-09-04T22:13:26.467Z,99943.80
2022-09-04T22:13:41.884Z,99949.20
2022-09-04T22:14:34.547Z,99949.40
2022-09-04T22:17:14.296Z,99954.00
2022-09-04T22:19:52.495Z,99954.40
2022-09-04T22:22:34.220Z,99954.60
2022-09-04T22:25:28.828Z,99958.80
2022-09-04T22:28:46.544Z,99953.20
2022-09-04T22:31:29.222Z,99956.40
2022-09-04T22:34:24.882Z,99954.00
2022-09-04T22:37:38.727Z,99957.00
2022-09-04T22:40:27.341Z,99958.00
2022-09-04T22:43:16.583Z,99957.80
2022-09-04T22:46:02.544Z,99957.80
2022-09-04T22:49:12.634Z,99958.60
2022-09-04T22:52:21.789Z,99958.80
2022-09-04T22:55:29.279Z,99961.20
2022-09-04T22:58:37.019Z,99959.00
2022-09-04T23:02:20.090Z,99963.20
2022-09-04T23:05:32.177Z,99964.40
2022-09-04T23:13:44.079Z,99960.80
2022-09-04T23:13:52.519Z,99969.40
2022-09-04T23:15:29.738Z,99968.60
2022-09-04T23:20:00.683Z,99973.40
2022-09-04T23:26:37.949Z,99978.80
2022-09-04T23:26:45.853Z,99975.60
2022-09-04T23:28:27.821Z,99969.00
2022-09-04T23:31:37.194Z,99977.00
2022-09-04T23:35:14.223Z,99975.00
2022-09-04T23:38:08.044Z,99978.40
2022-09-04T23:40:57.727Z,99975.80
2022-09-04T23:44:14.564Z,99976.60
2022-09-04T23:47:47.144Z,99978.60
2022-09-04T23:50:26.050Z,99982.00
2022-09-04T23:53:17.709Z,99983.60
2022-09-04T23:56:16.890Z,99980.80
2022-09-04T23:59:38.002Z,99984.00
